Terminal Aerodrome Forecast
Issued by NWS Grand Forks, ND

Home | Current Version | Previous Version | Graphics & Text | Print | Product List | Glossary On
Versions: 1 2 3 4 5 6 7 8 9 10 11 12 13 14
000
FTUS43 KFGF 231120
TAFFAR
TAF
KFAR 231120Z 2312/2412 30014KT P6SM BKN035
     FM231300 30016KT P6SM BKN030
     FM231700 31020G28KT P6SM BKN035
     FM232300 32018KT P6SM SCT100
     FM240600 31010KT P6SM FEW110
     FM240900 30010KT P6SM BKN090=

USA.gov is the U.S. government's official web portal to all federal, state and local government web resources and services.